createdAt,value
2023-03-08T00:01:02.459Z,0.10
2023-03-08T00:03:29.261Z,-0.08
2023-03-08T00:05:55.834Z,0.04
2023-03-08T00:08:22.431Z,0.02
2023-03-08T00:10:49.381Z,-0.01
2023-03-08T00:13:15.984Z,0.05
2023-03-08T00:15:42.572Z,0.05
2023-03-08T00:18:09.467Z,0.03
2023-03-08T00:20:36.167Z,-0.11
2023-03-08T00:23:02.875Z,-0.03
2023-03-08T00:25:30.034Z,-0.03
2023-03-08T00:27:56.634Z,-0.18
2023-03-08T00:30:23.274Z,-0.04
2023-03-08T00:32:49.968Z,0.00
2023-03-08T00:35:16.676Z,-0.23
2023-03-08T00:37:43.269Z,-0.20
2023-03-08T00:40:10.473Z,-0.14
2023-03-08T00:42:37.069Z,-0.06
2023-03-08T00:45:03.850Z,-0.04
2023-03-08T00:47:30.732Z,-0.29
2023-03-08T00:49:58.001Z,-0.10
2023-03-08T00:52:24.597Z,-0.18
2023-03-08T00:54:54.026Z,-0.08
2023-03-08T00:57:20.661Z,-0.18
2023-03-08T00:59:47.219Z,-0.07
2023-03-08T01:02:14.100Z,-0.20
2023-03-08T01:04:40.697Z,-0.07
2023-03-08T01:07:07.326Z,-0.08
2023-03-08T01:09:33.984Z,-0.19
2023-03-08T01:12:00.592Z,-0.15
2023-03-08T01:14:27.211Z,-0.11
2023-03-08T01:16:53.876Z,-0.17
2023-03-08T01:19:20.715Z,-0.18
2023-03-08T01:21:47.265Z,-0.13
2023-03-08T01:24:14.030Z,-0.20
2023-03-08T01:26:40.615Z,-0.06
2023-03-08T01:29:07.158Z,-0.09
2023-03-08T01:31:33.959Z,-0.09
2023-03-08T01:34:00.745Z,-0.34
2023-03-08T01:36:28.718Z,-0.52
2023-03-08T01:38:55.575Z,-0.09
2023-03-08T01:41:28.575Z,-0.71
2023-03-08T01:43:55.995Z,-0.06
2023-03-08T01:46:29.871Z,-0.06
2023-03-08T01:49:17.912Z,-0.06
2023-03-08T01:51:49.089Z,-0.21
2023-03-08T01:54:28.451Z,-0.26
2023-03-08T01:57:01.043Z,-0.16
2023-03-08T01:59:29.951Z,-0.03
2023-03-08T02:01:56.596Z,-0.25
2023-03-08T02:04:23.208Z,-0.14
2023-03-08T02:06:50.022Z,-0.10
2023-03-08T02:09:16.700Z,-0.10
2023-03-08T02:11:43.722Z,-0.28
2023-03-08T02:14:10.643Z,-0.27
2023-03-08T02:16:38.302Z,-0.11
2023-03-08T02:19:11.264Z,-0.11
2023-03-08T02:21:37.978Z,-0.33
2023-03-08T02:24:21.140Z,-0.17
2023-03-08T02:26:48.555Z,-0.19
2023-03-08T02:29:15.349Z,-0.38
2023-03-08T02:31:42.054Z,-0.19
2023-03-08T02:34:08.857Z,-0.18
2023-03-08T02:36:35.734Z,-0.42
2023-03-08T02:39:02.372Z,-0.21
2023-03-08T02:41:29.074Z,-0.28
2023-03-08T02:43:55.675Z,-0.15
2023-03-08T02:46:22.570Z,-0.16
2023-03-08T02:48:50.787Z,-0.12
2023-03-08T02:51:17.365Z,-0.17
2023-03-08T02:53:43.995Z,-0.18
2023-03-08T02:56:10.636Z,-0.26
2023-03-08T02:58:37.220Z,-0.19
2023-03-08T03:01:03.983Z,-0.09
2023-03-08T03:03:31.443Z,-0.10
2023-03-08T03:05:58.192Z,-0.15
2023-03-08T03:08:24.815Z,-0.20
2023-03-08T03:10:51.546Z,-0.14
2023-03-08T03:13:18.176Z,-0.21
2023-03-08T03:15:44.867Z,-0.58
2023-03-08T03:18:11.492Z,-0.38
2023-03-08T03:20:38.083Z,-0.28
2023-03-08T03:23:04.744Z,-0.32
2023-03-08T03:25:31.342Z,-0.43
2023-03-08T03:27:57.943Z,-0.25
2023-03-08T03:30:24.601Z,-0.47
2023-03-08T03:32:51.325Z,-0.41
2023-03-08T03:35:18.040Z,-0.28
2023-03-08T03:37:44.732Z,-0.28
2023-03-08T03:40:12.396Z,-0.42
2023-03-08T03:42:38.951Z,-0.30
2023-03-08T03:45:06.110Z,-0.38
2023-03-08T03:47:32.661Z,-0.38
2023-03-08T03:49:59.288Z,-0.53
2023-03-08T03:52:25.924Z,-0.35
2023-03-08T03:54:52.569Z,-0.51
2023-03-08T03:57:20.449Z,-0.42
2023-03-08T03:59:47.142Z,-0.55
2023-03-08T04:02:13.731Z,-0.56
2023-03-08T04:04:40.348Z,-0.42
2023-03-08T04:07:07.032Z,-0.48
2023-03-08T04:09:33.608Z,-0.66
2023-03-08T04:12:02.642Z,-0.46
2023-03-08T04:14:29.235Z,-0.46
2023-03-08T04:16:55.899Z,-0.47
2023-03-08T04:19:22.648Z,-0.52
2023-03-08T04:21:49.401Z,-0.52
2023-03-08T04:24:16.018Z,-0.67
2023-03-08T04:26:42.607Z,-0.85
2023-03-08T04:29:09.234Z,-0.52
2023-03-08T04:31:36.932Z,-0.52
2023-03-08T04:34:04.219Z,-0.53
2023-03-08T04:36:30.965Z,-0.71
2023-03-08T04:38:58.069Z,-0.86
2023-03-08T04:41:25.199Z,-0.53
2023-03-08T04:43:54.591Z,-0.52
2023-03-08T04:46:26.691Z,-0.52
2023-03-08T04:48:55.646Z,-0.62
2023-03-08T04:51:24.681Z,-0.53
2023-03-08T04:53:51.425Z,-0.52
2023-03-08T04:56:18.740Z,-0.54
2023-03-08T04:58:45.484Z,-0.51
2023-03-08T06:03:42.483Z,-0.74
2023-03-08T06:06:09.204Z,-0.74
2023-03-08T06:08:36.066Z,-0.72
2023-03-08T06:11:03.000Z,-0.75
2023-03-08T06:13:30.060Z,-0.85
2023-03-08T06:15:58.190Z,-0.67
2023-03-08T06:18:25.385Z,-0.72
2023-03-08T06:21:16.832Z,-1.02
2023-03-08T06:23:45.528Z,-0.61
2023-03-08T06:26:12.771Z,-0.67
2023-03-08T06:28:42.751Z,-0.76
2023-03-08T06:31:13.366Z,-0.57
2023-03-08T06:33:40.386Z,-0.70
2023-03-08T06:36:13.001Z,-0.53
2023-03-08T06:38:41.489Z,-0.73
2023-03-08T06:41:10.293Z,-0.89
2023-03-08T06:43:37.103Z,-0.46
2023-03-08T06:46:09.082Z,-0.45
2023-03-08T06:48:36.908Z,-0.34
2023-03-08T06:51:05.009Z,-0.57
2023-03-08T06:53:32.124Z,-0.22
2023-03-08T06:55:59.116Z,-0.18
2023-03-08T06:58:25.694Z,-0.19
2023-03-08T07:00:54.365Z,-0.25
2023-03-08T07:03:21.054Z,-0.10
2023-03-08T07:05:47.656Z,0.02
2023-03-08T07:08:14.406Z,0.02
2023-03-08T07:10:41.092Z,0.12
2023-03-08T07:13:07.702Z,0.12
2023-03-08T07:15:34.435Z,-0.14
2023-03-08T07:18:01.122Z,0.18
2023-03-08T07:20:27.968Z,-0.08
2023-03-08T07:22:54.855Z,0.26
2023-03-08T07:25:21.903Z,0.35
2023-03-08T07:27:48.730Z,0.53
2023-03-08T07:30:16.278Z,0.37
2023-03-08T07:32:43.192Z,0.49
2023-03-08T07:35:11.636Z,0.78
2023-03-08T07:37:38.563Z,0.70
2023-03-08T07:40:06.940Z,0.90
2023-03-08T07:42:33.886Z,0.95
2023-03-08T07:45:03.717Z,0.80
2023-03-08T07:47:31.649Z,1.05
2023-03-08T07:49:58.555Z,1.05
2023-03-08T07:52:29.462Z,1.00
2023-03-08T07:54:56.770Z,1.29
2023-03-08T07:57:23.885Z,1.17
2023-03-08T07:59:53.417Z,1.43
2023-03-08T08:02:20.748Z,1.45
2023-03-08T08:04:47.451Z,1.46
2023-03-08T08:07:16.494Z,1.40
2023-03-08T08:09:43.262Z,1.68
2023-03-08T08:12:10.075Z,1.51
2023-03-08T08:14:36.857Z,1.62
2023-03-08T08:17:03.826Z,1.90
2023-03-08T08:19:32.025Z,1.74
2023-03-08T08:21:59.161Z,2.06
2023-03-08T08:24:26.293Z,2.12
2023-03-08T08:26:53.302Z,2.06
2023-03-08T08:29:20.173Z,2.14
2023-03-08T08:31:46.998Z,2.36
2023-03-08T08:34:13.949Z,2.22
2023-03-08T08:36:40.730Z,2.51
2023-03-08T08:39:07.396Z,2.54
2023-03-08T08:41:34.072Z,2.60
2023-03-08T08:44:00.971Z,2.64
2023-03-08T08:46:28.630Z,2.46
2023-03-08T08:48:57.636Z,2.67
2023-03-08T08:51:24.611Z,2.67
2023-03-08T08:53:51.354Z,2.85
2023-03-08T08:56:27.265Z,2.83
2023-03-08T08:59:00.608Z,2.81
2023-03-08T09:01:31.402Z,2.89
2023-03-08T09:03:59.408Z,2.86
2023-03-08T09:06:27.933Z,2.84
2023-03-08T09:08:57.484Z,3.04
2023-03-08T09:11:25.462Z,3.11
2023-03-08T09:13:53.318Z,3.13
2023-03-08T09:16:28.632Z,2.97
2023-03-08T09:18:56.974Z,3.00
2023-03-08T09:21:24.881Z,3.22
2023-03-08T09:23:52.136Z,3.05
2023-03-08T09:26:19.190Z,3.30
2023-03-08T09:28:46.117Z,3.39
2023-03-08T09:31:18.753Z,3.42
2023-03-08T09:33:48.698Z,3.44
2023-03-08T09:36:15.755Z,3.50
2023-03-08T09:38:42.913Z,3.62
2023-03-08T09:41:27.919Z,3.61
2023-03-08T09:43:57.486Z,3.68
2023-03-08T09:46:31.258Z,3.64
2023-03-08T09:49:01.198Z,3.70
2023-03-08T09:51:37.764Z,3.86
2023-03-08T09:54:11.299Z,3.80
2023-03-08T09:56:46.107Z,3.82
2023-03-08T09:59:19.720Z,3.91
2023-03-08T10:02:17.331Z,4.04
2023-03-08T10:05:12.188Z,4.12
2023-03-08T10:08:01.495Z,4.21
2023-03-08T10:10:28.039Z,4.28
2023-03-08T10:13:19.078Z,4.35
2023-03-08T10:15:50.592Z,4.41
2023-03-08T10:18:21.899Z,4.55
2023-03-08T10:20:49.059Z,4.61
2023-03-08T10:23:19.442Z,4.74
2023-03-08T10:25:47.987Z,4.75
2023-03-08T10:28:16.128Z,4.91
2023-03-08T10:31:04.553Z,4.96
2023-03-08T10:33:36.261Z,4.98
2023-03-08T10:36:06.501Z,4.99
2023-03-08T10:38:35.405Z,4.99
2023-03-08T10:41:16.574Z,5.06
2023-03-08T10:43:49.412Z,5.12
2023-03-08T10:46:22.853Z,5.21
2023-03-08T10:48:49.848Z,5.16
2023-03-08T10:51:27.760Z,5.22
2023-03-08T10:54:03.464Z,5.41
2023-03-08T10:56:38.574Z,5.46
2023-03-08T10:59:15.828Z,5.37
2023-03-08T11:01:54.708Z,5.56
2023-03-08T11:04:23.718Z,5.58
2023-03-08T11:06:50.728Z,5.42
2023-03-08T11:09:22.354Z,5.64
2023-03-08T11:11:49.052Z,5.60
2023-03-08T11:14:16.265Z,5.44
2023-03-08T11:17:05.041Z,5.50
2023-03-08T11:19:35.190Z,5.44
2023-03-08T11:22:07.939Z,5.63
2023-03-08T11:24:53.041Z,5.64
2023-03-08T11:27:44.242Z,5.64
2023-03-08T11:30:28.030Z,5.60
2023-03-08T11:33:34.304Z,5.59
2023-03-08T11:36:12.665Z,5.53
2023-03-08T11:38:39.749Z,5.29
2023-03-08T11:41:14.738Z,5.43
2023-03-08T11:44:00.172Z,5.39
2023-03-08T11:46:41.966Z,5.22
2023-03-08T11:49:33.980Z,5.31
2023-03-08T11:52:00.586Z,5.28
2023-03-08T11:54:52.623Z,5.36
2023-03-08T11:57:20.285Z,5.38
2023-03-08T11:59:50.074Z,5.38
2023-03-08T12:02:30.545Z,5.29
2023-03-08T12:05:12.151Z,5.26
2023-03-08T12:07:45.274Z,5.29
2023-03-08T12:10:29.668Z,5.33
2023-03-08T12:13:23.345Z,5.34
2023-03-08T12:16:01.788Z,5.36
2023-03-08T12:18:34.586Z,5.39
2023-03-08T12:21:34.360Z,5.40
2023-03-08T12:24:26.813Z,5.48
2023-03-08T12:27:02.194Z,5.56
2023-03-08T12:29:37.623Z,5.40
2023-03-08T12:32:05.888Z,5.76
2023-03-08T12:34:35.788Z,5.78
2023-03-08T12:37:02.693Z,5.72
2023-03-08T12:39:36.890Z,5.78
2023-03-08T12:42:09.990Z,5.89
2023-03-08T12:44:37.806Z,5.92
2023-03-08T12:47:13.761Z,5.97
2023-03-08T12:49:45.023Z,6.03
2023-03-08T12:52:17.688Z,6.06
2023-03-08T12:54:56.378Z,5.75
2023-03-08T12:57:28.574Z,5.87
2023-03-08T12:59:58.761Z,5.45
2023-03-08T13:02:28.507Z,5.56
2023-03-08T13:05:28.536Z,5.40
2023-03-08T13:08:07.316Z,5.21
2023-03-08T13:10:38.475Z,5.24
2023-03-08T13:13:20.464Z,5.36
2023-03-08T13:16:20.556Z,5.29
2023-03-08T13:18:49.877Z,5.34
2023-03-08T13:21:35.406Z,5.35
2023-03-08T13:24:22.645Z,5.28
2023-03-08T13:27:09.085Z,5.17
2023-03-08T13:29:36.403Z,5.26
2023-03-08T13:32:18.281Z,5.27
2023-03-08T13:34:47.102Z,5.21
2023-03-08T13:37:25.152Z,5.25
2023-03-08T13:39:57.365Z,5.07
2023-03-08T13:42:25.879Z,4.92
2023-03-08T13:44:54.021Z,5.01
2023-03-08T13:47:30.454Z,4.92
2023-03-08T13:49:58.749Z,5.14
2023-03-08T13:52:31.378Z,5.22
2023-03-08T13:55:05.438Z,5.26
2023-03-08T13:57:36.554Z,5.22
2023-03-08T14:00:28.456Z,5.02
2023-03-08T14:02:57.644Z,5.04
2023-03-08T14:05:28.576Z,5.17
2023-03-08T14:08:04.163Z,5.10
2023-03-08T14:10:39.083Z,5.18
2023-03-08T14:13:14.746Z,5.17
2023-03-08T14:15:58.845Z,5.29
2023-03-08T14:18:34.671Z,5.04
2023-03-08T14:21:05.370Z,5.29
2023-03-08T14:23:38.215Z,5.19
2023-03-08T14:26:07.742Z,5.14
2023-03-08T14:28:41.391Z,5.04
2023-03-08T14:31:28.695Z,5.12
2023-03-08T14:34:01.773Z,5.13
2023-03-08T14:36:30.534Z,5.15
2023-03-08T14:39:01.657Z,5.06
2023-03-08T14:41:36.585Z,4.82
2023-03-08T14:44:05.046Z,5.00
2023-03-08T14:46:32.042Z,5.00
2023-03-08T14:49:22.359Z,5.18
2023-03-08T14:51:49.794Z,5.18
2023-03-08T14:54:38.594Z,5.19
2023-03-08T14:57:17.367Z,5.24
2023-03-08T14:59:44.505Z,5.32
2023-03-08T15:02:13.334Z,5.32
2023-03-08T15:04:40.946Z,5.24
2023-03-08T15:07:14.864Z,5.10
2023-03-08T15:09:41.577Z,4.87
2023-03-08T15:12:09.474Z,5.13
2023-03-08T15:14:36.609Z,5.14
2023-03-08T15:17:03.686Z,4.95
2023-03-08T15:19:30.294Z,5.07
2023-03-08T15:21:57.181Z,5.05
2023-03-08T15:24:23.920Z,4.79
2023-03-08T15:26:52.727Z,4.91
2023-03-08T15:29:28.936Z,4.92
2023-03-08T15:31:56.149Z,4.95
2023-03-08T15:34:23.422Z,4.92
2023-03-08T15:36:51.469Z,4.83
2023-03-08T15:39:19.453Z,5.03
2023-03-08T15:41:47.118Z,5.05
2023-03-08T15:44:14.045Z,4.97
2023-03-08T15:46:40.801Z,4.85
2023-03-08T15:49:07.528Z,4.90
2023-03-08T15:51:36.419Z,4.87
2023-03-08T15:54:05.611Z,4.83
2023-03-08T15:56:32.495Z,4.78
2023-03-08T15:58:59.380Z,4.70
2023-03-08T16:01:27.302Z,4.77
2023-03-08T16:03:55.730Z,4.77
2023-03-08T16:06:23.334Z,4.74
2023-03-08T16:08:49.900Z,4.77
2023-03-08T16:11:20.517Z,4.70
2023-03-08T16:13:49.280Z,4.68
2023-03-08T16:16:16.218Z,4.74
2023-03-08T16:18:44.718Z,4.44
2023-03-08T16:21:11.859Z,4.68
2023-03-08T16:23:41.695Z,4.61
2023-03-08T16:26:16.945Z,4.31
2023-03-08T16:28:47.042Z,4.47
2023-03-08T16:31:15.199Z,4.45
2023-03-08T16:33:41.987Z,4.34
2023-03-08T16:36:08.847Z,4.32
2023-03-08T16:38:35.952Z,4.22
2023-03-08T16:41:12.547Z,4.29
2023-03-08T16:43:47.406Z,4.02
2023-03-08T16:46:17.171Z,4.28
2023-03-08T16:48:44.054Z,4.22
2023-03-08T16:51:14.415Z,4.29
2023-03-08T16:53:41.170Z,4.19
2023-03-08T16:56:07.879Z,4.06
2023-03-08T16:58:34.648Z,3.68
2023-03-08T17:01:01.548Z,4.22
2023-03-08T17:03:28.454Z,3.75
2023-03-08T17:05:55.072Z,4.00
2023-03-08T17:08:21.971Z,4.07
2023-03-08T17:10:48.724Z,4.00
2023-03-08T17:13:15.316Z,4.14
2023-03-08T17:15:44.041Z,4.11
2023-03-08T17:18:11.122Z,3.69
2023-03-08T17:20:41.855Z,4.08
2023-03-08T17:23:11.138Z,3.99
2023-03-08T17:25:41.134Z,4.00
2023-03-08T17:28:08.820Z,4.02
2023-03-08T17:30:36.628Z,3.98
2023-03-08T17:33:03.347Z,3.92
2023-03-08T17:35:30.432Z,3.91
2023-03-08T17:37:57.437Z,3.93
2023-03-08T17:40:24.455Z,3.94
2023-03-08T17:42:51.233Z,3.95
2023-03-08T17:45:18.779Z,3.97
2023-03-08T17:47:45.712Z,3.93
2023-03-08T17:50:15.351Z,3.90
2023-03-08T17:52:42.472Z,3.74
2023-03-08T17:55:12.038Z,3.89
2023-03-08T17:57:38.815Z,3.82
2023-03-08T18:00:06.491Z,3.60
2023-03-08T18:02:33.487Z,3.63
2023-03-08T18:05:00.189Z,3.62
2023-03-08T18:07:29.200Z,3.63
2023-03-08T18:09:56.102Z,3.70
2023-03-08T18:12:23.102Z,3.54
2023-03-08T18:14:52.698Z,3.62
2023-03-08T18:17:21.677Z,3.49
2023-03-08T18:19:48.683Z,3.49
2023-03-08T18:22:16.317Z,3.65
2023-03-08T18:24:43.060Z,3.19
2023-03-08T18:27:09.770Z,3.65
2023-03-08T18:29:36.981Z,3.65
2023-03-08T18:32:04.928Z,3.67
2023-03-08T18:34:31.586Z,3.42
2023-03-08T18:36:58.935Z,3.67
2023-03-08T18:39:25.964Z,3.60
2023-03-08T18:41:56.653Z,3.61
2023-03-08T18:44:24.238Z,3.65
2023-03-08T18:46:51.017Z,3.31
2023-03-08T18:49:18.221Z,3.57
2023-03-08T18:51:45.227Z,3.47
2023-03-08T18:54:17.446Z,3.55
2023-03-08T18:56:44.615Z,3.55
2023-03-08T18:59:13.577Z,3.62
2023-03-08T19:01:40.856Z,3.49
2023-03-08T19:04:08.105Z,3.49
2023-03-08T19:06:36.375Z,3.58
2023-03-08T19:09:15.101Z,3.29
2023-03-08T19:11:42.321Z,3.39
2023-03-08T19:14:11.453Z,3.56
2023-03-08T19:16:38.135Z,3.54
2023-03-08T19:19:13.364Z,3.47
2023-03-08T19:21:45.060Z,3.53
2023-03-08T19:24:13.359Z,3.39
2023-03-08T19:26:43.072Z,3.52
2023-03-08T19:29:22.940Z,3.53
2023-03-08T19:31:53.917Z,3.49
2023-03-08T19:34:26.586Z,3.50
2023-03-08T19:36:53.498Z,3.47
2023-03-08T19:39:23.540Z,3.33
2023-03-08T19:41:51.832Z,3.43
2023-03-08T19:44:19.126Z,3.30
2023-03-08T19:46:46.742Z,3.40
2023-03-08T19:49:16.433Z,3.40
2023-03-08T19:51:43.391Z,3.38
2023-03-08T19:54:10.324Z,3.40
2023-03-08T19:56:36.949Z,3.31
2023-03-08T19:59:04.139Z,3.34
2023-03-08T20:01:31.248Z,3.23
2023-03-08T20:03:58.094Z,3.28
2023-03-08T20:06:34.435Z,3.24
2023-03-08T20:09:02.639Z,3.14
2023-03-08T20:11:29.627Z,3.18
2023-03-08T20:13:56.558Z,2.91
2023-03-08T20:16:24.482Z,3.10
2023-03-08T20:18:51.917Z,3.14
2023-03-08T20:21:20.042Z,3.11
2023-03-08T20:23:49.573Z,3.08
2023-03-08T20:26:16.165Z,3.01
2023-03-08T20:28:43.084Z,2.99
2023-03-08T20:31:13.086Z,2.94
2023-03-08T20:33:40.080Z,2.68
2023-03-08T20:36:07.439Z,3.02
2023-03-08T20:38:34.087Z,2.86
2023-03-08T20:41:21.759Z,2.85
2023-03-08T20:43:50.682Z,2.88
2023-03-08T20:46:19.559Z,2.95
2023-03-08T20:48:46.770Z,2.88
2023-03-08T20:51:16.117Z,2.94
2023-03-08T20:53:43.946Z,2.93
2023-03-08T20:56:14.928Z,2.91
2023-03-08T20:58:42.084Z,2.75
2023-03-08T21:01:12.136Z,2.85
2023-03-08T21:03:39.339Z,2.67
2023-03-08T21:06:14.036Z,2.90
2023-03-08T21:08:41.301Z,2.71
2023-03-08T21:11:08.003Z,2.76
2023-03-08T21:13:34.667Z,2.94
2023-03-08T21:16:06.424Z,2.95
2023-03-08T21:18:33.096Z,2.95
2023-03-08T21:20:59.855Z,2.92
2023-03-08T21:23:26.829Z,2.92
2023-03-08T21:25:54.320Z,2.78
2023-03-08T21:28:22.043Z,2.65
2023-03-08T21:30:49.935Z,2.72
2023-03-08T21:33:17.073Z,2.95
2023-03-08T21:35:43.833Z,2.95
2023-03-08T21:38:10.682Z,2.89
2023-03-08T21:40:39.304Z,2.89
2023-03-08T21:43:06.091Z,2.81
2023-03-08T21:45:33.151Z,2.92
2023-03-08T21:47:59.989Z,2.84
2023-03-08T21:50:27.364Z,2.93
2023-03-08T21:52:54.679Z,2.69
2023-03-08T21:55:21.640Z,2.88
2023-03-08T21:57:48.372Z,2.85
2023-03-08T22:00:17.546Z,2.79
2023-03-08T22:02:46.026Z,2.16
2023-03-08T22:05:14.127Z,2.57
2023-03-08T22:07:41.626Z,2.78
2023-03-08T22:10:10.813Z,2.70
2023-03-08T22:12:37.724Z,2.80
2023-03-08T22:15:05.603Z,2.76
2023-03-08T22:17:32.460Z,2.80
2023-03-08T22:19:59.129Z,2.60
2023-03-08T22:22:26.150Z,2.72
2023-03-08T22:24:52.789Z,2.53
2023-03-08T22:27:19.434Z,2.72
2023-03-08T22:29:47.412Z,2.53
2023-03-08T22:32:14.199Z,2.20
2023-03-08T22:34:40.818Z,2.69
2023-03-08T22:37:07.566Z,2.77
2023-03-08T22:39:34.252Z,2.72
2023-03-08T22:42:01.156Z,2.72
2023-03-08T22:44:27.927Z,2.45
2023-03-08T22:46:54.625Z,2.75
2023-03-08T22:49:21.197Z,2.57
2023-03-08T22:51:48.043Z,2.57
2023-03-08T22:54:16.591Z,2.59
2023-03-08T22:56:43.384Z,2.70
2023-03-08T22:59:10.674Z,2.68
2023-03-08T23:01:37.497Z,2.57
2023-03-08T23:04:06.260Z,2.55
2023-03-08T23:06:33.467Z,2.66
2023-03-08T23:09:03.564Z,2.64
2023-03-08T23:11:30.412Z,2.51
2023-03-08T23:13:57.134Z,2.59
2023-03-08T23:16:24.051Z,2.67
2023-03-08T23:18:52.379Z,2.65
2023-03-08T23:21:20.818Z,2.48
2023-03-08T23:23:48.031Z,2.59
2023-03-08T23:26:21.396Z,2.52
2023-03-08T23:28:48.158Z,2.54
2023-03-08T23:31:17.290Z,2.41
2023-03-08T23:33:44.728Z,2.37
2023-03-08T23:36:13.148Z,2.47
2023-03-08T23:38:40.740Z,2.51
2023-03-08T23:41:09.481Z,2.39
2023-03-08T23:43:36.924Z,2.49
2023-03-08T23:46:08.397Z,2.54
2023-03-08T23:48:35.733Z,2.34
2023-03-08T23:51:07.077Z,2.54
2023-03-08T23:53:34.327Z,2.54
2023-03-08T23:56:01.501Z,2.41
2023-03-08T23:58:28.632Z,2.50
